Time;durP1;ratioP1;P1;durP2;ratioP2;P2;SDS_P1;SDS_P2;PMS_P1;PMS_P2;Temp;Humidity;BMP_temperature;BMP_pressure;BME280_temperature;BME280_humidity;BME280_pressure;Samples;Min_cycle;Max_cycle;Signal;HPM_P1;HPM_P2
2021/09/17 00:01:24;;;;;;;9.23;3.30;;;;;;;9.93;57.52;99516.88;5059792;28;20485;-79
2021/09/17 00:03:50;;;;;;;7.05;2.90;;;;;;;9.97;57.28;99526.16;5036666;28;20057;-79
2021/09/17 00:06:17;;;;;;;7.85;2.90;;;;;;;9.96;57.43;99523.72;5059264;28;20135;-78
2021/09/17 00:08:43;;;;;;;10.27;2.83;;;;;;;9.89;57.18;99507.63;5066679;28;20521;-79
2021/09/17 00:11:09;;;;;;;11.00;2.90;;;;;;;9.97;57.11;99523.41;5037988;28;20049;-79
2021/09/17 00:13:36;;;;;;;8.70;2.67;;;;;;;9.96;57.16;99521.78;5052107;28;20065;-79
2021/09/17 00:16:02;;;;;;;9.02;2.80;;;;;;;9.92;56.74;99518.81;5034119;28;20053;-79
2021/09/17 00:18:32;;;;;;;9.50;2.80;;;;;;;9.97;57.03;99515.22;5053070;28;20067;-80
2021/09/17 00:21:00;;;;;;;8.18;2.65;;;;;;;9.98;56.55;99516.84;5051748;28;20198;-79
2021/09/17 00:23:32;;;;;;;10.75;3.60;;;;;;;9.92;56.51;99507.06;5061365;28;20499;-78
2021/09/17 00:25:58;;;;;;;10.27;2.67;;;;;;;9.93;56.60;99519.59;5057718;28;20413;-76
2021/09/17 00:28:27;;;;;;;11.45;2.60;;;;;;;9.92;56.55;99524.28;5052194;28;20053;-78
2021/09/17 00:30:53;;;;;;;10.45;2.80;;;;;;;9.93;56.33;99523.16;5069977;28;20053;-77
2021/09/17 00:33:22;;;;;;;9.25;3.10;;;;;;;9.92;56.38;99517.97;5066931;28;20055;-77
2021/09/17 00:35:48;;;;;;;8.68;2.70;;;;;;;9.88;56.58;99509.50;5053673;28;20057;-77
2021/09/17 00:38:17;;;;;;;9.75;2.95;;;;;;;9.92;56.46;99516.06;5051725;28;20107;-78
2021/09/17 00:40:44;;;;;;;9.90;3.00;;;;;;;9.92;56.46;99507.88;5059885;28;20049;-77
2021/09/17 00:43:10;;;;;;;6.90;2.67;;;;;;;9.93;56.37;99511.41;5050270;28;20083;-77
2021/09/17 00:45:39;;;;;;;7.28;2.90;;;;;;;9.88;56.39;99511.44;5052072;28;20525;-77
2021/09/17 00:48:05;;;;;;;8.60;3.35;;;;;;;9.87;56.31;99518.00;5070447;28;20052;-78
2021/09/17 00:50:34;;;;;;;7.22;3.03;;;;;;;9.83;56.44;99520.47;5058332;28;20052;-78
2021/09/17 00:53:00;;;;;;;10.55;3.00;;;;;;;9.77;56.31;99514.19;5065250;28;20049;-76
2021/09/17 00:55:27;;;;;;;7.38;2.70;;;;;;;9.77;56.35;99503.25;5050947;28;20078;-77
2021/09/17 00:57:57;;;;;;;7.47;3.00;;;;;;;9.82;56.06;99499.72;5052042;28;20111;-78
2021/09/17 01:00:26;;;;;;;7.72;2.83;;;;;;;9.88;56.10;99506.78;5052386;28;20049;-78
2021/09/17 01:02:52;;;;;;;7.80;2.90;;;;;;;9.87;55.98;99507.06;5061047;28;20578;-78
2021/09/17 01:05:33;;;;;;;8.77;3.00;;;;;;;9.82;56.43;99502.44;5054494;28;20143;-78
2021/09/17 01:08:03;;;;;;;6.90;2.95;;;;;;;9.76;56.33;99512.56;5055906;28;20068;-78
2021/09/17 01:10:30;;;;;;;15.65;3.30;;;;;;;9.77;56.47;99508.72;5049766;28;20099;-79
2021/09/17 01:12:58;;;;;;;13.70;3.30;;;;;;;9.78;56.56;99504.91;5054783;28;20110;-78
2021/09/17 01:15:24;;;;;;;9.27;3.10;;;;;;;9.76;56.68;99515.28;5065479;28;20048;-78
2021/09/17 01:17:50;;;;;;;7.70;3.10;;;;;;;9.80;56.54;99507.38;5062770;28;20528;-77
2021/09/17 01:20:21;;;;;;;21.23;3.38;;;;;;;9.80;56.70;99512.81;5051864;28;20107;-77
2021/09/17 01:22:49;;;;;;;9.23;3.17;;;;;;;9.81;56.62;99514.47;5044095;28;20053;-77
2021/09/17 01:25:16;;;;;;;10.80;3.10;;;;;;;9.76;56.64;99504.34;5077082;28;20056;-77
2021/09/17 01:27:43;;;;;;;8.13;3.20;;;;;;;9.73;56.83;99502.19;5062750;28;20111;-78
2021/09/17 01:30:15;;;;;;;9.88;2.95;;;;;;;9.73;56.71;99507.66;5052106;28;20571;-78
2021/09/17 01:32:41;;;;;;;8.63;2.92;;;;;;;9.76;56.27;99498.91;5053325;28;20063;-78
2021/09/17 01:35:12;;;;;;;8.43;2.95;;;;;;;9.78;56.22;99502.16;5036450;28;20056;-78
2021/09/17 01:37:38;;;;;;;10.68;3.00;;;;;;;9.82;56.05;99501.59;5050184;28;20425;-77
2021/09/17 01:40:08;;;;;;;6.95;2.90;;;;;;;9.73;55.99;99496.72;5061909;28;20385;-78
2021/09/17 01:42:37;;;;;;;8.27;3.20;;;;;;;9.73;56.44;99496.72;5062666;28;20417;-77
2021/09/17 01:45:08;;;;;;;11.27;3.42;;;;;;;9.67;56.29;99480.63;5070311;28;20105;-78
2021/09/17 01:47:34;;;;;;;8.70;3.70;;;;;;;9.72;56.29;99492.38;5064730;28;20056;-77
2021/09/17 01:50:04;;;;;;;9.60;3.13;;;;;;;9.60;56.35;99487.22;5051716;28;20061;-78
2021/09/17 01:52:30;;;;;;;9.27;3.50;;;;;;;9.67;56.47;99497.81;5052179;28;20045;-76
2021/09/17 01:54:56;;;;;;;7.97;2.78;;;;;;;9.69;56.45;99501.13;5069325;28;20425;-77
2021/09/17 01:57:26;;;;;;;9.60;3.47;;;;;;;9.64;56.51;99485.56;5076158;28;20060;-77
2021/09/17 01:59:55;;;;;;;10.82;3.70;;;;;;;9.65;56.42;99498.09;5076960;28;20059;-78
2021/09/17 02:02:21;;;;;;;7.32;3.03;;;;;;;9.63;56.28;99492.13;5065399;28;20067;-77
2021/09/17 02:04:50;;;;;;;7.72;3.30;;;;;;;9.61;56.19;99488.00;5057115;28;20049;-77
2021/09/17 02:07:19;;;;;;;8.48;3.35;;;;;;;9.63;56.12;99500.31;5073665;28;20056;-78
2021/09/17 02:09:45;;;;;;;9.48;3.30;;;;;;;9.60;56.03;99487.22;5076104;28;20452;-77
2021/09/17 02:12:11;;;;;;;8.65;3.00;;;;;;;9.67;56.11;99497.81;5059905;28;20052;-77
2021/09/17 02:14:39;;;;;;;7.20;3.20;;;;;;;9.62;55.80;99489.66;5039834;28;20057;-77
2021/09/17 02:17:05;;;;;;;9.57;3.28;;;;;;;9.64;56.07;99495.66;5050403;28;20075;-77
2021/09/17 02:19:31;;;;;;;11.20;3.17;;;;;;;9.63;56.11;99494.84;5061364;28;20059;-78
2021/09/17 02:21:57;;;;;;;9.65;3.22;;;;;;;9.59;56.12;99493.72;5055993;28;20053;-76
2021/09/17 02:24:24;;;;;;;10.77;3.50;;;;;;;9.61;56.09;99490.75;5057346;28;20425;-77
2021/09/17 02:26:53;;;;;;;9.67;3.23;;;;;;;9.54;56.24;99485.56;5076847;28;20068;-77
2021/09/17 02:29:20;;;;;;;12.07;3.15;;;;;;;9.56;56.41;99494.28;5066327;28;20081;-76
2021/09/17 02:31:50;;;;;;;11.13;3.63;;;;;;;9.50;56.47;99493.47;5061458;28;20071;-78
2021/09/17 02:34:16;;;;;;;10.48;3.17;;;;;;;9.47;56.42;99485.84;5080632;28;20025;-78
2021/09/17 02:36:42;;;;;;;8.10;3.42;;;;;;;9.49;56.66;99491.03;5070327;28;20105;-77
2021/09/17 02:39:11;;;;;;;9.13;3.80;;;;;;;9.38;56.74;99490.25;5087717;28;20079;-77
2021/09/17 02:41:38;;;;;;;21.20;5.97;;;;;;;9.48;56.91;99503.06;5101421;28;20040;-76
2021/09/17 02:44:04;;;;;;;18.17;4.90;;;;;;;9.48;56.94;99506.59;5092063;28;20139;-76
2021/09/17 02:46:33;;;;;;;20.05;5.45;;;;;;;9.49;56.98;99504.69;5059194;28;20095;-77
2021/09/17 02:49:01;;;;;;;12.02;5.38;;;;;;;9.54;57.08;99495.69;5049409;28;20053;-79
2021/09/17 02:51:30;;;;;;;16.50;6.30;;;;;;;9.48;57.08;99497.59;5057697;28;20552;-78
2021/09/17 02:53:58;;;;;;;13.20;5.57;;;;;;;9.51;57.17;99499.75;5067686;28;20051;-78
2021/09/17 02:56:24;;;;;;;12.68;4.75;;;;;;;9.50;57.18;99507.13;5071663;28;20056;-78
2021/09/17 02:58:50;;;;;;;19.42;9.15;;;;;;;9.48;57.32;99506.59;5058287;28;20079;-78
2021/09/17 03:01:17;;;;;;;13.65;7.03;;;;;;;9.49;57.27;99510.94;5050632;28;20530;-78
2021/09/17 03:03:42;;;;;;;12.90;6.20;;;;;;;9.49;57.19;99507.41;5079165;28;20049;-77
2021/09/17 03:06:10;;;;;;;15.30;7.00;;;;;;;9.48;57.16;99512.03;5065655;28;20049;-77
2021/09/17 03:08:36;;;;;;;17.35;7.82;;;;;;;9.48;57.41;99517.50;5056092;28;20099;-78
2021/09/17 03:11:02;;;;;;;20.90;10.93;;;;;;;9.49;57.21;99518.34;5055154;28;20060;-76
2021/09/17 03:13:28;;;;;;;14.68;7.28;;;;;;;9.38;57.36;99503.06;5060811;28;20057;-78
2021/09/17 03:15:55;;;;;;;18.13;7.03;;;;;;;9.43;57.48;99508.50;5053445;28;20140;-77
2021/09/17 03:18:21;;;;;;;24.30;11.77;;;;;;;9.33;57.61;99491.06;5053771;28;20057;-77
2021/09/17 03:20:51;;;;;;;18.15;8.80;;;;;;;9.45;57.36;99509.88;5054288;28;20157;-77
2021/09/17 03:23:19;;;;;;;22.17;5.78;;;;;;;9.44;57.43;99507.41;5020671;28;20049;-77
2021/09/17 03:25:45;;;;;;;10.80;4.93;;;;;;;9.47;57.42;99507.69;5054433;28;20057;-77
2021/09/17 03:28:11;;;;;;;12.80;4.78;;;;;;;9.45;57.55;99515.31;5053735;28;20063;-77
2021/09/17 03:30:37;;;;;;;9.75;4.43;;;;;;;9.44;57.74;99516.41;5032647;28;20053;-77
2021/09/17 03:33:03;;;;;;;11.13;4.15;;;;;;;9.44;57.89;99507.41;5052860;28;20064;-77
2021/09/17 03:35:29;;;;;;;14.00;3.92;;;;;;;9.43;57.93;99506.59;5052752;28;20411;-77
2021/09/17 03:37:58;;;;;;;11.32;4.28;;;;;;;9.42;57.98;99507.69;5036976;28;20468;-78
2021/09/17 03:40:25;;;;;;;10.48;4.50;;;;;;;9.48;57.85;99509.31;5060552;28;20091;-77
2021/09/17 03:42:51;;;;;;;14.02;5.05;;;;;;;9.47;57.73;99517.78;5051252;28;20072;-78
2021/09/17 03:45:20;;;;;;;12.98;4.82;;;;;;;9.48;57.56;99511.25;5060372;28;20053;-77
2021/09/17 03:47:46;;;;;;;12.35;4.80;;;;;;;9.46;57.81;99505.25;5057984;28;20568;-79
2021/09/17 03:50:12;;;;;;;16.02;5.18;;;;;;;9.47;57.57;99509.59;5072247;28;20076;-78
2021/09/17 03:52:38;;;;;;;19.45;4.95;;;;;;;9.47;57.53;99504.94;5060029;28;20055;-78
2021/09/17 03:55:05;;;;;;;14.20;5.15;;;;;;;9.52;57.39;99501.41;5061525;28;20057;-78
2021/09/17 03:57:33;;;;;;;13.93;5.00;;;;;;;9.58;57.13;99507.69;5054377;28;20060;-79
2021/09/17 03:59:59;;;;;;;;;;;;;;;9.61;56.88;99507.13;5041095;28;20053;-80
2021/09/17 04:02:25;;;;;;;16.92;5.40;;;;;;;9.60;56.82;99510.94;5027623;28;20417;-79
2021/09/17 04:04:51;;;;;;;13.70;4.63;;;;;;;9.59;56.57;99512.03;5072845;28;20117;-79
2021/09/17 04:07:17;;;;;;;13.30;4.97;;;;;;;9.62;56.43;99517.78;5069867;28;20096;-79
2021/09/17 04:09:43;;;;;;;14.73;5.60;;;;;;;9.63;56.17;99513.13;5053953;28;20057;-80
2021/09/17 04:12:09;;;;;;;14.57;5.72;;;;;;;9.65;56.15;99519.94;5037498;28;20111;-80
2021/09/17 04:14:36;;;;;;;16.27;6.05;;;;;;;9.67;55.74;99518.84;5071391;28;20049;-80
2021/09/17 04:17:03;;;;;;;17.65;6.30;;;;;;;9.65;55.61;99525.41;5075992;28;20057;-79
2021/09/17 04:19:29;;;;;;;15.32;5.78;;;;;;;9.62;55.38;99516.94;5066203;28;20114;-78
2021/09/17 04:21:55;;;;;;;12.82;6.20;;;;;;;9.59;55.43;99514.78;5054638;28;20057;-77
2021/09/17 04:24:21;;;;;;;16.20;5.70;;;;;;;9.62;55.29;99517.78;5044445;28;20111;-77
2021/09/17 04:26:47;;;;;;;15.07;5.95;;;;;;;9.63;55.14;99518.56;5051306;28;20147;-78
2021/09/17 04:29:16;;;;;;;14.43;5.78;;;;;;;9.69;55.20;99528.41;5072700;28;20060;-79
2021/09/17 04:31:43;;;;;;;14.05;6.75;;;;;;;9.62;55.08;99517.78;5035357;28;20064;-79
2021/09/17 04:34:12;;;;;;;18.80;6.80;;;;;;;9.72;55.01;99530.59;5052796;28;20398;-78
2021/09/17 04:36:38;;;;;;;17.88;6.53;;;;;;;9.62;54.76;99514.22;5052430;28;20045;-78
2021/09/17 04:39:04;;;;;;;16.85;6.57;;;;;;;9.66;54.88;99534.41;5067865;28;20102;-80
2021/09/17 04:41:30;;;;;;;13.93;6.38;;;;;;;9.68;54.62;99529.50;5059763;28;20061;-80
2021/09/17 04:43:56;;;;;;;19.52;7.40;;;;;;;9.66;54.53;99537.13;5038936;28;20071;-79
2021/09/17 04:46:22;;;;;;;17.38;7.63;;;;;;;9.72;54.40;99540.69;5045291;28;20055;-78
2021/09/17 04:48:49;;;;;;;16.20;6.72;;;;;;;9.74;54.19;99541.22;5051559;28;20057;-79
2021/09/17 04:51:16;;;;;;;16.33;7.30;;;;;;;9.77;53.64;99538.75;5063015;28;20103;-78
2021/09/17 04:53:42;;;;;;;21.98;7.53;;;;;;;9.81;53.72;99535.47;5051721;28;20102;-79
2021/09/17 04:56:08;;;;;;;18.52;7.28;;;;;;;9.85;53.65;99539.31;5041790;28;20387;-78
2021/09/17 04:58:34;;;;;;;15.38;7.50;;;;;;;9.84;53.18;99535.75;5051605;28;20080;-79
2021/09/17 05:01:00;;;;;;;21.90;7.20;;;;;;;9.94;53.02;99543.09;5050118;28;20614;-79
2021/09/17 05:03:26;;;;;;;16.27;7.00;;;;;;;9.94;52.64;99545.81;5051562;28;20063;-79
2021/09/17 05:05:53;;;;;;;17.25;7.30;;;;;;;9.83;52.46;99517.72;5033848;28;20144;-78
2021/09/17 05:08:19;;;;;;;17.55;7.40;;;;;;;9.97;52.21;99534.34;5051580;28;20045;-79
2021/09/17 05:10:45;;;;;;;18.45;8.45;;;;;;;9.97;52.22;99539.81;5032949;28;20050;-78
2021/09/17 05:13:11;;;;;;;17.55;9.20;;;;;;;9.91;52.25;99530.81;5049145;28;20049;-79
2021/09/17 05:15:37;;;;;;;21.65;8.65;;;;;;;9.98;52.18;99541.44;5049847;28;20168;-79
2021/09/17 05:18:04;;;;;;;15.63;7.72;;;;;;;9.97;52.18;99549.94;5033581;28;20057;-79
2021/09/17 05:20:37;;;;;;;16.52;8.13;;;;;;;9.90;52.03;99518.25;5034269;28;20049;-76
2021/09/17 05:23:06;;;;;;;16.67;7.55;;;;;;;10.01;51.86;99535.44;5047166;28;20425;-78
2021/09/17 05:25:32;;;;;;;21.08;8.43;;;;;;;10.03;51.89;99544.16;5049093;28;20045;-79
2021/09/17 05:27:59;;;;;;;16.70;8.30;;;;;;;10.04;51.76;99531.31;5050278;28;20049;-79
2021/09/17 05:30:25;;;;;;;16.20;8.20;;;;;;;10.05;51.70;99538.41;5060176;28;20049;-79
2021/09/17 05:32:51;;;;;;;17.90;8.38;;;;;;;10.06;51.76;99535.41;5065523;28;20053;-79
2021/09/17 05:35:18;;;;;;;27.58;9.13;;;;;;;10.04;51.98;99532.16;5064806;28;20059;-78
2021/09/17 05:37:47;;;;;;;24.73;8.45;;;;;;;10.01;51.85;99524.50;5067024;28;20403;-78
2021/09/17 05:40:18;;;;;;;17.38;7.97;;;;;;;10.07;51.83;99531.59;5051151;28;20053;-79
2021/09/17 05:42:47;;;;;;;23.30;8.52;;;;;;;10.08;51.82;99526.97;5055722;28;20056;-79
2021/09/17 05:45:16;;;;;;;17.00;7.40;;;;;;;10.05;52.08;99522.84;5052656;28;20060;-80
2021/09/17 05:47:45;;;;;;;16.50;7.65;;;;;;;10.03;52.03;99525.06;5065276;28;20110;-80
2021/09/17 05:50:12;;;;;;;21.45;8.18;;;;;;;10.02;52.21;99525.31;5067009;28;20049;-80
2021/09/17 05:52:39;;;;;;;16.08;6.90;;;;;;;10.08;52.40;99522.28;5054298;28;20057;-79
2021/09/17 05:55:06;;;;;;;17.27;8.30;;;;;;;10.10;52.62;99523.94;5049348;28;20137;-80
2021/09/17 05:57:37;;;;;;;17.23;7.80;;;;;;;10.01;52.62;99516.31;5055545;28;20061;-81
2021/09/17 06:00:08;;;;;;;22.13;7.40;;;;;;;10.00;52.30;99516.59;5051566;28;20049;-81
2021/09/17 06:02:38;;;;;;;17.27;7.53;;;;;;;10.01;52.43;99520.94;5052891;28;20505;-81
2021/09/17 06:05:04;;;;;;;14.52;7.30;;;;;;;9.95;52.56;99511.94;5054311;28;20053;-81
2021/09/17 06:07:30;;;;;;;16.77;7.53;;;;;;;9.91;52.62;99511.72;5055997;28;20061;-81
2021/09/17 06:09:57;;;;;;;16.85;7.65;;;;;;;9.98;52.39;99516.84;5062503;28;20040;-79
2021/09/17 06:12:26;;;;;;;15.00;7.22;;;;;;;10.00;52.50;99511.97;5058380;28;20130;-80
2021/09/17 06:14:56;;;;;;;20.35;7.90;;;;;;;10.04;52.50;99514.94;5071677;28;20052;-79
2021/09/17 06:17:25;;;;;;;18.45;7.80;;;;;;;9.95;52.48;99513.88;5067751;28;20449;-80
2021/09/17 06:19:54;;;;;;;17.17;7.88;;;;;;;10.02;52.74;99522.59;5072575;28;20312;-80
2021/09/17 06:22:20;;;;;;;13.98;7.20;;;;;;;10.03;52.31;99521.50;5069230;28;20500;-77
2021/09/17 06:24:46;;;;;;;20.17;7.78;;;;;;;10.04;52.45;99517.66;5051419;28;20140;-79
2021/09/17 06:27:12;;;;;;;24.20;8.57;;;;;;;10.02;52.21;99519.84;5088804;28;20061;-79
2021/09/17 06:29:38;;;;;;;17.33;7.75;;;;;;;10.04;52.24;99515.75;5057404;28;20063;-80
2021/09/17 06:32:08;;;;;;;14.70;6.97;;;;;;;9.92;52.41;99505.16;5055418;28;20066;-80
2021/09/17 06:34:34;;;;;;;21.20;6.82;;;;;;;10.07;52.56;99523.38;5060881;28;20049;-80
2021/09/17 06:37:04;;;;;;;21.00;7.75;;;;;;;10.09;52.52;99531.31;5052028;28;20160;-80
2021/09/17 06:39:32;;;;;;;17.60;6.88;;;;;;;10.12;52.23;99541.69;5051985;28;20044;-80
2021/09/17 06:41:59;;;;;;;15.30;6.55;;;;;;;10.10;52.27;99543.88;5050450;28;20063;-80
2021/09/17 06:44:27;;;;;;;15.80;6.75;;;;;;;10.02;52.38;99534.34;5036393;28;20410;-80
2021/09/17 06:46:53;;;;;;;14.02;5.95;;;;;;;9.97;52.39;99536.25;5037137;28;20057;-79
2021/09/17 06:49:21;;;;;;;13.43;6.18;;;;;;;9.93;52.32;99533.25;5068774;28;20090;-79
2021/09/17 06:51:47;;;;;;;12.45;6.30;;;;;;;9.93;52.36;99530.53;5052105;28;20064;-79
2021/09/17 06:54:13;;;;;;;23.80;6.95;;;;;;;9.98;52.51;99540.63;5057005;28;20045;-79
2021/09/17 06:56:39;;;;;;;15.52;6.22;;;;;;;10.00;52.51;99533.81;5068268;28;20068;-78
2021/09/17 06:59:11;;;;;;;15.77;6.53;;;;;;;9.93;52.69;99534.09;5059448;28;20506;-78
2021/09/17 07:01:37;;;;;;;11.65;5.60;;;;;;;9.88;52.63;99536.00;5058837;28;20052;-78
2021/09/17 07:04:03;;;;;;;15.60;6.70;;;;;;;9.87;52.88;99529.72;5060107;28;20452;-78
2021/09/17 07:06:32;;;;;;;11.70;6.10;;;;;;;9.86;52.85;99538.22;5056362;28;20510;-77
2021/09/17 07:08:58;;;;;;;12.25;5.68;;;;;;;9.92;52.84;99531.63;5057476;28;20108;-79
2021/09/17 07:11:24;;;;;;;14.70;5.90;;;;;;;9.90;52.76;99534.63;5065953;28;20075;-85
2021/09/17 07:13:53;;;;;;;15.57;6.10;;;;;;;9.75;52.74;99507.34;5056443;28;20259;-81
2021/09/17 07:16:22;;;;;;;19.67;6.53;;;;;;;9.92;52.74;99535.19;5055066;28;20079;-79
2021/09/17 07:18:54;;;;;;;16.52;6.28;;;;;;;9.97;52.66;99536.25;5054341;28;20045;-81
2021/09/17 07:21:23;;;;;;;16.08;6.50;;;;;;;9.92;52.61;99526.16;5055635;28;20052;-80
2021/09/17 07:23:51;;;;;;;20.23;7.30;;;;;;;9.96;52.64;99532.69;5053818;28;20465;-79
2021/09/17 07:26:17;;;;;;;18.63;7.18;;;;;;;9.92;52.53;99524.28;5039845;28;20049;-78
2021/09/17 07:28:48;;;;;;;15.70;6.70;;;;;;;9.96;52.39;99529.97;5048450;28;20087;-78
2021/09/17 07:31:17;;;;;;;16.92;6.82;;;;;;;9.95;52.58;99524.81;5079299;28;20048;-78
2021/09/17 07:33:43;;;;;;;17.65;7.07;;;;;;;9.93;52.36;99530.53;5053583;28;20056;-79
2021/09/17 07:36:09;;;;;;;16.77;6.63;;;;;;;9.96;52.38;99531.91;5070629;28;20080;-78
2021/09/17 07:38:35;;;;;;;15.95;7.25;;;;;;;9.94;52.42;99532.16;5057721;28;20049;-79
2021/09/17 07:41:02;;;;;;;18.77;6.65;;;;;;;9.91;52.33;99530.81;5070200;28;20059;-79
2021/09/17 07:43:29;;;;;;;19.38;6.65;;;;;;;9.94;52.44;99537.63;5054180;28;20048;-78
2021/09/17 07:45:55;;;;;;;16.48;7.13;;;;;;;9.89;52.45;99524.81;5037426;28;20053;-78
2021/09/17 07:48:23;;;;;;;18.25;7.72;;;;;;;10.01;52.28;99529.97;5054207;28;20087;-77
2021/09/17 07:50:49;;;;;;;19.58;7.50;;;;;;;9.99;52.31;99534.91;5052584;28;20147;-79
2021/09/17 07:53:15;;;;;;;17.58;7.93;;;;;;;9.98;52.56;99538.69;5039563;28;20307;-79
2021/09/17 07:55:41;;;;;;;19.05;7.70;;;;;;;10.01;52.53;99542.81;5062241;28;20049;-79
2021/09/17 07:58:09;;;;;;;22.13;7.68;;;;;;;9.98;52.69;99546.09;5067982;28;20087;-78
2021/09/17 08:00:35;;;;;;;18.17;7.43;;;;;;;9.93;52.71;99536.00;5057748;28;20144;-78
2021/09/17 08:03:10;;;;;;;15.30;7.35;;;;;;;10.01;52.56;99549.09;5059027;28;20064;-77
2021/09/17 08:05:39;;;;;;;20.08;6.82;;;;;;;10.01;52.54;99540.06;5052082;28;20553;-77
2021/09/17 08:08:05;;;;;;;21.75;6.88;;;;;;;10.06;52.34;99551.81;5069308;28;20048;-78
2021/09/17 08:10:32;;;;;;;16.63;6.35;;;;;;;10.01;52.30;99540.91;5074355;28;20106;-77
2021/09/17 08:12:58;;;;;;;20.17;6.95;;;;;;;10.08;52.35;99552.34;5073932;28;20084;-78
2021/09/17 08:15:26;;;;;;;19.30;7.75;;;;;;;10.05;52.09;99554.81;5072393;28;20424;-78
2021/09/17 08:17:52;;;;;;;15.27;7.03;;;;;;;9.97;52.24;99542.53;5056929;28;20044;-78
2021/09/17 08:20:18;;;;;;;15.80;7.22;;;;;;;10.01;52.12;99548.25;5059639;28;20060;-77
2021/09/17 08:22:44;;;;;;;20.25;7.50;;;;;;;9.97;52.07;99548.00;5054162;28;20092;-78
2021/09/17 08:25:13;;;;;;;21.58;7.53;;;;;;;9.82;52.22;99521.56;5053556;28;20142;-78
2021/09/17 08:27:39;;;;;;;16.30;7.53;;;;;;;9.80;51.88;99521.00;5036542;28;20059;-77
2021/09/17 08:30:07;;;;;;;19.63;8.55;;;;;;;9.95;51.81;99544.72;5055805;28;20524;-78
2021/09/17 08:32:55;;;;;;;24.70;8.65;;;;;;;9.95;51.94;99539.25;5061379;28;20517;-77
2021/09/17 08:35:43;;;;;;;26.95;9.07;;;;;;;10.00;51.93;99558.38;5055826;28;20500;-78
2021/09/17 08:38:30;;;;;;;17.95;7.95;;;;;;;10.03;51.90;99549.63;5052846;28;20056;-78
2021/09/17 08:41:02;;;;;;;24.40;9.18;;;;;;;10.04;51.76;99543.06;5053601;28;20057;-77
2021/09/17 08:43:33;;;;;;;18.13;7.20;;;;;;;10.05;51.58;99555.63;5054999;28;20057;-78
2021/09/17 08:46:00;;;;;;;20.23;7.72;;;;;;;9.99;51.45;99548.56;5057322;28;20552;-77
2021/09/17 08:48:30;;;;;;;20.73;7.70;;;;;;;10.02;51.23;99548.00;5051513;28;20135;-78
2021/09/17 08:51:23;;;;;;;21.63;7.75;;;;;;;9.76;50.92;99501.63;5057179;28;20040;-78
2021/09/17 08:54:02;;;;;;;33.55;8.55;;;;;;;9.63;50.94;99467.53;5052781;28;20579;-77
2021/09/17 08:56:36;;;;;;;28.75;7.78;;;;;;;10.05;50.90;99541.16;5051176;28;20095;-76
2021/09/17 08:59:03;;;;;;;21.45;7.00;;;;;;;10.07;50.70;99542.50;5053032;28;20065;-76
2021/09/17 09:01:31;;;;;;;19.13;7.32;;;;;;;10.11;50.63;99533.75;5052716;28;20092;-78
2021/09/17 09:04:01;;;;;;;18.80;7.38;;;;;;;10.14;50.43;99531.28;5056389;28;20099;-77
2021/09/17 09:06:51;;;;;;;24.40;7.65;;;;;;;10.11;50.30;99533.75;5061767;28;20080;-78
2021/09/17 09:09:55;;;;;;;16.25;7.00;;;;;;;9.85;50.10;99518.25;5061609;28;20044;-78
2021/09/17 09:12:24;;;;;;;14.68;6.80;;;;;;;10.01;50.30;99529.16;5057577;28;20055;-76
2021/09/17 09:15:11;;;;;;;19.80;7.00;;;;;;;9.70;50.26;99480.91;5057205;28;20053;-76
2021/09/17 09:17:36;;;;;;;13.15;6.05;;;;;;;9.91;50.15;99505.41;5053672;28;20060;-77
2021/09/17 09:20:20;;;;;;;17.48;6.97;;;;;;;10.04;49.95;99532.16;5058472;28;20128;-77
2021/09/17 09:23:20;;;;;;;18.33;7.10;;;;;;;10.10;50.03;99538.41;5068683;28;20063;-78
2021/09/17 09:25:57;;;;;;;18.63;6.75;;;;;;;10.12;50.10;99538.13;5068865;28;20102;-78
2021/09/17 09:28:26;;;;;;;19.02;7.53;;;;;;;10.16;49.99;99540.03;5071950;28;20147;-77
2021/09/17 09:30:53;;;;;;;18.67;6.40;;;;;;;10.23;49.88;99536.19;5054089;28;20072;-79
2021/09/17 09:33:31;;;;;;;18.45;7.47;;;;;;;10.23;49.83;99534.25;5055236;28;20520;-78
2021/09/17 09:36:01;;;;;;;17.10;7.15;;;;;;;10.16;49.80;99522.84;5048718;28;20523;-78
2021/09/17 09:38:31;;;;;;;18.20;7.22;;;;;;;10.28;49.67;99534.25;5047577;28;20061;-78
2021/09/17 09:41:04;;;;;;;15.20;7.30;;;;;;;10.32;49.52;99529.88;5047077;28;20056;-76
2021/09/17 09:43:36;;;;;;;15.65;6.55;;;;;;;10.25;49.05;99512.94;5033327;28;20516;-77
2021/09/17 09:46:32;;;;;;;15.05;6.20;;;;;;;10.40;48.75;99538.56;5050774;28;20076;-77
2021/09/17 09:49:25;;;;;;;18.95;6.70;;;;;;;10.35;48.58;99526.56;5056498;28;20065;-77
2021/09/17 09:51:55;;;;;;;16.35;6.10;;;;;;;10.41;48.65;99530.13;5052873;28;20073;-77
2021/09/17 09:54:23;;;;;;;16.15;7.22;;;;;;;10.45;48.50;99539.41;5065847;28;20079;-78
2021/09/17 09:56:50;;;;;;;22.27;7.63;;;;;;;10.45;48.66;99535.84;5070627;28;20060;-79
2021/09/17 09:59:20;;;;;;;22.10;7.28;;;;;;;10.43;48.52;99535.31;5070549;28;20048;-79
2021/09/17 10:01:47;;;;;;;24.40;7.82;;;;;;;10.45;48.26;99542.13;5071601;28;20049;-79
2021/09/17 10:04:15;;;;;;;16.05;7.47;;;;;;;10.50;48.03;99544.03;5040081;28;21091;-79
2021/09/17 10:06:42;;;;;;;18.05;6.70;;;;;;;10.55;47.39;99546.72;5057584;28;20053;-77
2021/09/17 10:09:11;;;;;;;20.15;7.15;;;;;;;10.52;46.78;99549.19;5055983;28;20061;-79
2021/09/17 10:11:38;;;;;;;14.90;6.30;;;;;;;10.47;46.23;99545.41;5035788;28;20061;-77
2021/09/17 10:14:07;;;;;;;12.00;5.72;;;;;;;10.45;45.75;99528.47;5051705;28;20068;-78
2021/09/17 10:16:34;;;;;;;12.90;5.60;;;;;;;10.54;45.36;99547.84;5052556;28;20080;-78
2021/09/17 10:19:01;;;;;;;13.23;5.35;;;;;;;10.56;45.33;99545.63;5054667;28;20421;-78
2021/09/17 10:21:49;;;;;;;13.20;5.53;;;;;;;10.62;45.07;99551.91;5056300;28;20053;-78
2021/09/17 10:24:39;;;;;;;21.67;5.47;;;;;;;10.68;44.20;99548.03;5055151;28;20512;-77
2021/09/17 10:27:19;;;;;;;13.27;5.93;;;;;;;10.64;44.27;99547.78;5055748;28;20052;-78
2021/09/17 10:29:55;;;;;;;14.35;5.53;;;;;;;10.66;44.31;99543.97;5062677;28;20056;-76
2021/09/17 10:32:46;;;;;;;16.52;6.10;;;;;;;10.62;44.35;99552.72;5060765;28;21551;-77
2021/09/17 10:35:15;;;;;;;19.88;5.95;;;;;;;10.64;44.36;99553.25;5016854;28;20059;-76
2021/09/17 10:37:50;;;;;;;15.30;6.05;;;;;;;10.61;44.01;99551.09;5053548;28;20049;-79
2021/09/17 10:40:32;;;;;;;15.10;6.32;;;;;;;10.65;44.27;99548.59;5054014;28;20064;-77
2021/09/17 10:43:18;;;;;;;13.93;5.88;;;;;;;10.67;44.14;99551.06;5068935;28;20048;-77
2021/09/17 10:45:48;;;;;;;21.70;6.90;;;;;;;10.64;44.25;99556.00;5075061;28;20063;-78
2021/09/17 10:48:19;;;;;;;17.95;7.07;;;;;;;10.41;44.12;99524.66;5074779;28;20060;-78
2021/09/17 10:50:53;;;;;;;16.52;7.45;;;;;;;10.62;44.23;99554.63;5079650;28;20045;-78
2021/09/17 10:53:58;;;;;;;16.02;7.30;;;;;;;10.59;44.21;99556.00;5073893;28;20049;-78
2021/09/17 10:56:26;;;;;;;16.27;7.22;;;;;;;10.45;44.29;99530.38;5018769;28;20058;-77
2021/09/17 10:59:14;;;;;;;16.23;6.63;;;;;;;10.63;44.30;99550.78;5060652;28;20053;-76
2021/09/17 11:02:03;;;;;;;14.50;5.85;;;;;;;10.57;44.39;99552.72;5070456;28;20068;-76
2021/09/17 11:04:31;;;;;;;15.63;6.65;;;;;;;10.56;44.69;99555.75;5054404;28;20068;-79
2021/09/17 11:07:34;;;;;;;15.93;6.60;;;;;;;10.54;44.65;99557.97;5054447;28;20061;-79
2021/09/17 11:10:04;;;;;;;14.05;6.18;;;;;;;10.44;44.98;99545.13;5052714;28;20052;-77
2021/09/17 11:12:36;;;;;;;14.32;6.10;;;;;;;10.46;45.11;99554.69;5083182;28;20064;-79
2021/09/17 11:15:14;;;;;;;17.73;6.25;;;;;;;10.47;45.13;99550.06;5063181;28;20045;-78
2021/09/17 11:17:47;;;;;;;14.00;5.90;;;;;;;10.41;45.21;99551.16;5037254;28;20160;-79
2021/09/17 11:20:19;;;;;;;14.25;6.03;;;;;;;10.39;45.20;99545.13;5052107;28;20115;-78
2021/09/17 11:22:59;;;;;;;12.82;6.22;;;;;;;10.43;45.18;99543.50;5048584;28;20061;-77
2021/09/17 11:25:30;;;;;;;17.13;5.80;;;;;;;10.33;45.14;99533.41;5063379;28;20059;-78
2021/09/17 11:27:58;;;;;;;14.88;6.15;;;;;;;10.40;45.34;99557.69;5092737;28;20057;-77
2021/09/17 11:30:29;;;;;;;13.43;5.80;;;;;;;10.30;45.20;99539.44;5079765;28;20071;-79
2021/09/17 11:33:21;;;;;;;15.75;6.88;;;;;;;10.36;45.09;99549.25;5078947;28;20067;-77
2021/09/17 11:35:54;;;;;;;13.73;6.10;;;;;;;10.30;45.25;99547.63;5089143;28;20055;-77
2021/09/17 11:38:24;;;;;;;14.68;6.22;;;;;;;10.22;45.26;99532.63;5068791;28;20045;-79
2021/09/17 11:40:56;;;;;;;15.05;5.90;;;;;;;10.31;45.37;99550.09;5075849;28;20052;-79
2021/09/17 11:43:26;;;;;;;14.90;6.05;;;;;;;10.27;45.22;99548.19;5075086;28;20109;-79